Latest Conditions
At L.F.Wade Int. Airport
Recorded at 5:55 am
Partly Cloudy
Temp.: 
20°C/69°F
Humidity: 
79%
Wind: 
W 10KT
or 12mph
Island Observations
Observations
Wednesday, April 23, 2014

Observations are in local time and taken at least once an hour, or upon the start and end of specified events such as showers and thunderstorms.

Time Sky / Weather Wind Speed/Gusts Temp. R.H. Pressure
     knots (mph)  °C (°F)  %  mb / "Hg
 05:55 Partly Cloudy  W 10/0 (12/0) 20(69) 79 1008 / 29.76
 04:55 Few Clouds  W 12/0 (14/0) 21(69) 80 1007 / 29.74
 03:55 Partly Cloudy  W 14/0 (16/0) 21(69) 79 1007 / 29.73
 02:55 Partly Cloudy  W 14/0 (16/0) 21(69) 80 1007 / 29.74
 01:55 Mostly Cloudy  W 14/0 (16/0) 21(69) 80 1008 / 29.76
 00:55 Mostly Cloudy  W 13/0 (15/0) 21(69) 80 1008 / 29.76
 23:55 Mostly Cloudy  W 14/0 (16/0) 21(70) 80 1008 / 29.76
 22:55 Mostly Cloudy  W 13/0 (15/0) 21(70) 80 1007 / 29.74
 21:55 Mostly Cloudy  W 15/0 (17/0) 21(70) 81 1007 / 29.73
 20:55 Mostly Cloudy  W 15/0 (17/0) 21(70) 82 1006 / 29.71
 19:55 Mostly Cloudy  W 17/0 (20/0) 21(70) 79 1005 / 29.69
 19:42 Mostly Cloudy  W 16/0 (18/0) 21(70) 79 1005 / 29.69
 18:55 Mostly Cloudy  W 18/0 (21/0) 22(71) 78 1005 / 29.68
 17:55 Mostly Cloudy  W 15/0 (17/0) 22(72) 76 1005 / 29.68
 17:12 Mostly Cloudy  W 17/0 (20/0) 23(73) 76 1005 / 29.67
 16:55 Partly Cloudy  W 16/0 (18/0) 23(73) 73 1004 / 29.66
 15:55 Mostly Cloudy  W 17/0 (20/0) 23(74) 74 1005 / 29.67
 14:55 Mostly Cloudy  W 19/0 (22/0) 24(74) 71 1005 / 29.68
 13:55 Mostly Cloudy  W 17/0 (20/0) 24(74) 75 1005 / 29.68
 12:55 Partly Cloudy Showers W 13/0 (15/0) 22(72) 82 1005 / 29.69
 12:33 Mostly Cloudy Showers W 16/0 (18/0) 21(70) 81 1006 / 29.70
 11:55 Partly Cloudy  WSW 15/0 (17/0) 23(73) 76 1006 / 29.70
 11:40 Mostly Cloudy Showers W 14/0 (16/0) 22(72) 78 1006 / 29.70
 11:23 Mostly Cloudy Showers WSW 16/0 (18/0) 23(73) 76 1006 / 29.70
Observations from our AWOS sites are available here (password and username are both 'guest').